createdAt,value
2019-04-04T00:01:47.925Z,99861.72
2019-04-04T00:04:22.161Z,99857.82
2019-04-04T00:06:57.820Z,99851.25
2019-04-04T00:09:31.172Z,99851.33
2019-04-04T00:12:06.118Z,99855.73
2019-04-04T00:14:39.952Z,99844.01
2019-04-04T00:17:12.862Z,99847.09
2019-04-04T00:19:45.741Z,99844.02
2019-04-04T00:22:18.649Z,99841.90
2019-04-04T00:24:51.496Z,99841.91
2019-04-04T00:27:24.411Z,99847.26
2019-04-04T00:29:57.266Z,99839.36
2019-04-04T00:32:30.152Z,99842.88
2019-04-04T00:35:02.965Z,99841.65
2019-04-04T00:37:36.530Z,99839.04
2019-04-04T00:40:11.609Z,99845.67
2019-04-04T00:42:44.006Z,99844.78
2019-04-04T00:45:16.739Z,99850.61
2019-04-04T00:47:50.547Z,99837.49
2019-04-04T00:50:23.327Z,99842.34
2019-04-04T00:52:56.134Z,99841.09
2019-04-04T00:55:28.922Z,99838.91
2019-04-04T00:58:01.798Z,99836.86
2019-04-04T01:00:34.733Z,99835.05
2019-04-04T01:03:07.449Z,99829.39
2019-04-04T01:05:41.451Z,99838.17
2019-04-04T01:08:14.275Z,99835.55
2019-04-04T01:10:49.805Z,99831.61
2019-04-04T01:13:23.309Z,99828.57
2019-04-04T01:15:57.292Z,99828.22
2019-04-04T01:18:31.602Z,99831.74
2019-04-04T01:21:06.684Z,99832.69
2019-04-04T01:23:40.969Z,99834.05
2019-04-04T01:26:14.145Z,99831.88
2019-04-04T01:28:47.015Z,99821.92
2019-04-04T01:31:20.414Z,99822.35
2019-04-04T01:33:53.217Z,99824.55
2019-04-04T01:36:26.994Z,99818.86
2019-04-04T01:39:00.272Z,99823.28
2019-04-04T01:41:36.310Z,99816.72
2019-04-04T01:44:11.318Z,99813.66
2019-04-04T01:46:46.081Z,99810.25
2019-04-04T01:49:19.124Z,99813.39
2019-04-04T01:51:56.833Z,99807.24
2019-04-04T01:54:27.820Z,99807.26
2019-04-04T01:57:00.600Z,99817.35
2019-04-04T01:59:33.436Z,99810.76
2019-04-04T02:02:06.322Z,99800.23
2019-04-04T02:04:40.163Z,99797.66
2019-04-04T02:07:12.992Z,99816.14
2019-04-04T02:09:47.435Z,99798.13
2019-04-04T02:12:22.636Z,99803.84
2019-04-04T02:14:55.518Z,99795.96
2019-04-04T02:17:28.425Z,99802.54
2019-04-04T02:20:01.457Z,99795.55
2019-04-04T02:22:34.469Z,99791.55
2019-04-04T02:25:09.418Z,99794.63
2019-04-04T02:27:42.391Z,99790.73
2019-04-04T02:30:16.516Z,99792.55
2019-04-04T02:32:49.521Z,99793.86
2019-04-04T02:35:22.325Z,99778.95
2019-04-04T02:37:56.128Z,99781.58
2019-04-04T02:40:29.105Z,99782.13
2019-04-04T02:43:01.951Z,99776.00
2019-04-04T02:45:35.671Z,99772.98
2019-04-04T02:48:09.186Z,99776.05
2019-04-04T02:50:41.975Z,99779.61
2019-04-04T02:53:19.203Z,99785.84
2019-04-04T02:55:49.564Z,99781.50
2019-04-04T02:58:22.730Z,99777.17
2019-04-04T03:00:59.261Z,99783.78
2019-04-04T03:03:31.040Z,99776.30
2019-04-04T03:06:03.810Z,99773.27
2019-04-04T03:08:37.719Z,99775.95
2019-04-04T03:11:13.123Z,99779.06
2019-04-04T03:13:46.102Z,99777.74
2019-04-04T03:16:21.343Z,99773.84
2019-04-04T03:18:55.921Z,99772.96
2019-04-04T03:21:28.709Z,99767.70
2019-04-04T03:24:05.971Z,99766.42
2019-04-04T03:26:35.912Z,99767.75
2019-04-04T03:29:10.613Z,99760.38
2019-04-04T03:31:43.355Z,99759.50
2019-04-04T03:34:17.103Z,99759.97
2019-04-04T03:36:49.886Z,99762.59
2019-04-04T03:39:22.672Z,99757.37
2019-04-04T03:41:56.518Z,99757.37
2019-04-04T03:44:29.312Z,99763.07
2019-04-04T03:47:02.061Z,99758.72
2019-04-04T03:49:34.867Z,99760.03
2019-04-04T03:52:11.255Z,99750.44
2019-04-04T03:54:42.255Z,99756.56
2019-04-04T03:57:15.057Z,99749.16
2019-04-04T03:59:47.857Z,99759.66
2019-04-04T04:02:23.970Z,99757.50
2019-04-04T04:05:00.544Z,99758.38
2019-04-04T04:07:31.208Z,99759.69
2019-04-04T04:10:04.114Z,99769.77
2019-04-04T04:12:36.863Z,99764.98
2019-04-04T04:15:09.719Z,99761.05
2019-04-04T04:17:45.233Z,99761.48
2019-04-04T04:20:17.020Z,99748.83
2019-04-04T04:22:50.985Z,99765.86
2019-04-04T04:25:24.357Z,99767.61
2019-04-04T04:27:57.651Z,99765.42
2019-04-04T04:30:30.456Z,99768.50
2019-04-04T04:33:03.362Z,99765.42
2019-04-04T04:35:40.898Z,99761.48
2019-04-04T04:38:10.764Z,99760.14
2019-04-04T04:40:46.923Z,99763.20
2019-04-04T04:43:18.141Z,99758.86
2019-04-04T04:45:50.923Z,99758.39
2019-04-04T04:48:25.932Z,99750.50
2019-04-04T04:50:58.206Z,99755.31
2019-04-04T04:53:30.996Z,99754.45
2019-04-04T04:56:03.813Z,99750.94
2019-04-04T04:58:36.628Z,99757.47
2019-04-04T05:01:09.459Z,99746.56
2019-04-04T05:03:42.312Z,99755.28
2019-04-04T05:06:15.252Z,99747.90
2019-04-04T05:08:48.091Z,99750.88
2019-04-04T05:11:20.898Z,99753.03
2019-04-04T05:13:53.651Z,99755.25
2019-04-04T05:16:26.676Z,99755.66
2019-04-04T05:18:59.446Z,99751.28
2019-04-04T05:21:34.545Z,99749.50
2019-04-04T05:24:06.908Z,99752.93
2019-04-04T05:26:39.693Z,99745.02
2019-04-04T05:29:13.987Z,99738.80
2019-04-04T05:31:49.838Z,99731.27
2019-04-04T05:34:21.579Z,99743.14
2019-04-04T05:36:54.530Z,99730.44
2019-04-04T05:39:27.458Z,99737.34
2019-04-04T05:42:01.046Z,99730.30
2019-04-04T05:44:34.381Z,99731.45
2019-04-04T05:47:07.363Z,99740.43
2019-04-04T05:49:40.206Z,99728.09
2019-04-04T05:52:13.005Z,99730.10
2019-04-04T05:54:45.928Z,99732.66
2019-04-04T05:57:20.123Z,99733.39
2019-04-04T05:59:55.920Z,99736.04
2019-04-04T06:02:28.392Z,99736.79
2019-04-04T06:05:01.494Z,99739.26
2019-04-04T06:07:36.390Z,99732.73
2019-04-04T06:10:11.806Z,99733.09
2019-04-04T06:12:43.746Z,99736.61
2019-04-04T06:15:16.585Z,99733.02
2019-04-04T06:17:49.366Z,99729.88
2019-04-04T06:20:22.286Z,99731.11
2019-04-04T06:22:55.097Z,99735.92
2019-04-04T06:25:34.291Z,99724.34
2019-04-04T06:28:04.657Z,99729.94
2019-04-04T06:31:26.936Z,99721.01
2019-04-04T06:33:57.338Z,99730.91
2019-04-04T06:36:30.243Z,99718.84
2019-04-04T06:39:04.695Z,99710.30
2019-04-04T06:41:37.732Z,99718.02
2019-04-04T06:44:12.753Z,99711.64
2019-04-04T06:46:45.162Z,99707.00
2019-04-04T06:49:17.987Z,99706.77
2019-04-04T06:51:51.835Z,99708.31
2019-04-04T06:54:25.636Z,99708.50
2019-04-04T06:56:59.404Z,99699.48
2019-04-04T06:59:33.039Z,99690.88
2019-04-04T07:02:06.240Z,99695.41
2019-04-04T07:04:39.148Z,99699.10
2019-04-04T07:07:12.728Z,99697.01
2019-04-04T07:09:46.029Z,99698.11
2019-04-04T07:12:24.199Z,99698.59
2019-04-04T07:14:53.513Z,99688.67
2019-04-04T07:17:26.498Z,99682.66
2019-04-04T07:19:59.268Z,99688.13
2019-04-04T07:22:32.166Z,99677.20
2019-04-04T07:25:06.636Z,99678.66
2019-04-04T07:27:40.754Z,99674.30
2019-04-04T07:30:15.474Z,99679.58
2019-04-04T07:32:48.581Z,99690.95
2019-04-04T07:35:21.724Z,99680.87
2019-04-04T07:37:57.465Z,99680.83
2019-04-04T07:40:29.164Z,99676.83
2019-04-04T07:43:02.101Z,99685.78
2019-04-04T07:45:34.995Z,99681.77
2019-04-04T07:48:07.822Z,99678.02
2019-04-04T07:50:40.666Z,99682.20
2019-04-04T07:53:13.624Z,99673.50
2019-04-04T07:55:46.581Z,99688.76
2019-04-04T07:58:19.548Z,99672.52
2019-04-04T08:00:52.341Z,99681.42
2019-04-04T08:03:25.191Z,99676.38
2019-04-04T08:05:58.007Z,99665.44
2019-04-04T08:08:30.960Z,99668.12
2019-04-04T08:11:03.799Z,99678.08
2019-04-04T08:13:36.680Z,99674.28
2019-04-04T08:16:09.473Z,99679.39
2019-04-04T08:18:42.384Z,99684.80
2019-04-04T08:21:15.211Z,99673.36
2019-04-04T08:23:48.969Z,99671.06
2019-04-04T08:26:21.930Z,99674.94
2019-04-04T08:28:54.860Z,99657.41
2019-04-04T08:31:27.822Z,99681.28
2019-04-04T08:34:00.612Z,99670.59
2019-04-04T08:36:35.807Z,99676.28
2019-04-04T08:39:12.191Z,99675.34
2019-04-04T08:41:45.085Z,99667.52
2019-04-04T08:44:17.872Z,99663.90
2019-04-04T08:46:51.411Z,99668.67
2019-04-04T08:49:24.221Z,99667.17
2019-04-04T08:51:56.993Z,99663.62
2019-04-04T08:54:29.914Z,99656.73
2019-04-04T08:57:02.743Z,99652.77
2019-04-04T08:59:35.694Z,99649.23
2019-04-04T09:02:08.571Z,99649.07
2019-04-04T09:04:41.433Z,99640.38
2019-04-04T09:07:14.244Z,99654.12
2019-04-04T09:09:47.097Z,99649.58
2019-04-04T09:12:21.052Z,99643.09
2019-04-04T09:14:53.820Z,99645.91
2019-04-04T09:17:26.632Z,99638.70
2019-04-04T09:19:59.405Z,99635.08
2019-04-04T09:22:32.269Z,99632.05
2019-04-04T09:25:05.446Z,99629.59
2019-04-04T09:27:38.324Z,99631.27
2019-04-04T09:30:12.693Z,99631.84
2019-04-04T09:32:45.677Z,99624.23
2019-04-04T09:35:18.479Z,99627.57
2019-04-04T09:37:51.309Z,99633.09
2019-04-04T09:40:24.184Z,99641.37
2019-04-04T09:42:57.308Z,99637.15
2019-04-04T09:45:30.071Z,99620.06
2019-04-04T09:48:03.408Z,99626.90
2019-04-04T09:50:36.627Z,99633.06
2019-04-04T09:53:10.402Z,99629.70
2019-04-04T09:55:43.168Z,99627.70
2019-04-04T09:58:16.130Z,99640.64
2019-04-04T10:00:50.955Z,99627.06
2019-04-04T10:03:24.803Z,99622.54
2019-04-04T10:05:57.693Z,99618.73
2019-04-04T10:08:30.496Z,99628.52
2019-04-04T10:11:03.341Z,99619.27
2019-04-04T10:13:36.120Z,99631.52
2019-04-04T10:16:08.857Z,99624.50
2019-04-04T10:18:41.663Z,99620.84
2019-04-04T10:21:14.602Z,99620.50
2019-04-04T10:23:47.422Z,99614.67
2019-04-04T10:26:21.160Z,99612.62
2019-04-04T10:28:53.922Z,99617.98
2019-04-04T10:31:26.765Z,99601.05
2019-04-04T10:33:59.595Z,99604.86
2019-04-04T10:36:32.469Z,99610.23
2019-04-04T10:39:08.624Z,99600.36
2019-04-04T10:41:41.910Z,99600.77
2019-04-04T10:44:14.841Z,99601.52
2019-04-04T10:46:47.885Z,99599.42
2019-04-04T10:49:20.655Z,99616.47
2019-04-04T10:51:53.488Z,99603.81
2019-04-04T10:54:26.332Z,99606.41
2019-04-04T10:56:59.181Z,99610.53
2019-04-04T10:59:32.264Z,99600.66
2019-04-04T11:02:05.230Z,99584.55
2019-04-04T11:04:38.362Z,99592.22
2019-04-04T11:07:11.595Z,99599.04
2019-04-04T11:09:44.637Z,99594.05
2019-04-04T11:12:17.624Z,99593.48
2019-04-04T11:14:50.464Z,99587.44
2019-04-04T11:17:23.444Z,99599.84
2019-04-04T11:19:56.330Z,99606.22
2019-04-04T11:22:29.163Z,99586.27
2019-04-04T11:25:02.209Z,99577.27
2019-04-04T11:27:35.214Z,99580.86
2019-04-04T11:30:10.403Z,99591.53
2019-04-04T11:32:43.218Z,99595.92
2019-04-04T11:35:16.119Z,99588.97
2019-04-04T11:37:48.956Z,99583.98
2019-04-04T11:40:21.952Z,99587.25
2019-04-04T11:42:54.783Z,99588.18
2019-04-04T11:45:27.632Z,99583.15
2019-04-04T11:48:00.387Z,99579.50
2019-04-04T11:50:33.438Z,99577.66
2019-04-04T11:53:06.212Z,99586.44
2019-04-04T11:55:39.660Z,99580.83
2019-04-04T11:58:12.594Z,99575.25
2019-04-04T12:00:47.386Z,99580.23
2019-04-04T12:03:20.278Z,99570.44
2019-04-04T12:05:53.118Z,99559.36
2019-04-04T12:08:25.986Z,99572.48
2019-04-04T12:10:58.808Z,99571.43
2019-04-04T12:13:31.747Z,99549.22
2019-04-04T12:16:04.605Z,99581.13
2019-04-04T12:18:37.392Z,99582.76
2019-04-04T12:21:10.252Z,99575.19
2019-04-04T12:23:43.070Z,99566.17
2019-04-04T12:26:16.002Z,99563.29
2019-04-04T12:28:48.827Z,99577.47
2019-04-04T12:31:21.683Z,99537.41
2019-04-04T12:33:54.709Z,99558.22
2019-04-04T12:36:27.622Z,99557.92
2019-04-04T12:39:00.519Z,99550.82
2019-04-04T12:41:35.017Z,99545.25
2019-04-04T12:44:07.954Z,99568.55
2019-04-04T12:46:42.487Z,99549.88
2019-04-04T12:49:15.592Z,99563.78
2019-04-04T12:51:48.654Z,99548.36
2019-04-04T12:54:21.499Z,99547.59
2019-04-04T12:56:54.319Z,99554.27
2019-04-04T12:59:27.108Z,99545.91
2019-04-04T13:01:59.911Z,99550.94
2019-04-04T13:04:32.713Z,99541.63
2019-04-04T13:07:06.028Z,99540.56
2019-04-04T13:09:38.845Z,99538.69
2019-04-04T13:12:11.717Z,99542.34
2019-04-04T13:14:44.582Z,99538.32
2019-04-04T13:17:17.469Z,99538.32
2019-04-04T13:19:50.314Z,99551.09
2019-04-04T13:22:23.169Z,99534.08
2019-04-04T13:24:55.957Z,99536.76
2019-04-04T13:27:28.868Z,99532.80
2019-04-04T13:30:01.656Z,99525.45
2019-04-04T13:32:35.539Z,99525.27
2019-04-04T13:35:08.859Z,99531.16
2019-04-04T13:37:41.622Z,99536.30
2019-04-04T13:40:14.443Z,99523.80
2019-04-04T13:42:47.362Z,99542.58
2019-04-04T13:45:20.259Z,99548.03
2019-04-04T13:47:54.268Z,99541.20
2019-04-04T13:50:27.233Z,99534.56
2019-04-04T13:53:00.537Z,99528.81
2019-04-04T13:55:33.419Z,99519.59
2019-04-04T13:58:07.362Z,99531.86
2019-04-04T14:00:40.203Z,99528.13
2019-04-04T14:03:13.145Z,99531.88
2019-04-04T14:05:46.259Z,99535.11
2019-04-04T14:08:19.163Z,99535.08
2019-04-04T14:10:58.063Z,99537.48
2019-04-04T14:13:26.526Z,99523.50
2019-04-04T14:15:59.336Z,99526.57
2019-04-04T14:18:39.542Z,99527.80
2019-04-04T14:21:06.851Z,99528.58
2019-04-04T14:23:39.720Z,99514.05
2019-04-04T14:26:12.543Z,99530.28
2019-04-04T14:28:46.321Z,99533.43
2019-04-04T14:31:19.342Z,99512.20
2019-04-04T14:33:52.621Z,99522.13
2019-04-04T14:36:26.233Z,99527.33
2019-04-04T14:38:59.246Z,99531.42
2019-04-04T14:41:35.787Z,99528.86
2019-04-04T14:44:08.631Z,99533.19
2019-04-04T14:46:41.636Z,99537.95
2019-04-04T14:49:15.170Z,99526.77
2019-04-04T14:51:48.094Z,99519.02
2019-04-04T14:54:21.032Z,99509.77
2019-04-04T14:56:53.892Z,99515.59
2019-04-04T14:59:27.026Z,99530.91
2019-04-04T15:02:00.140Z,99519.45
2019-04-04T15:04:34.991Z,99517.60
2019-04-04T15:07:11.985Z,99516.58
2019-04-04T15:09:44.970Z,99522.64
2019-04-04T15:12:18.339Z,99530.73
2019-04-04T15:14:51.486Z,99515.98
2019-04-04T15:17:24.280Z,99524.75
2019-04-04T15:19:57.145Z,99523.09
2019-04-04T15:22:31.924Z,99515.98
2019-04-04T15:25:04.901Z,99519.73
2019-04-04T15:27:39.337Z,99524.70
2019-04-04T15:30:16.266Z,99519.89
2019-04-04T15:32:49.214Z,99527.30
2019-04-04T15:35:22.074Z,99521.23
2019-04-04T15:37:55.214Z,99526.91
2019-04-04T15:40:28.122Z,99526.98
2019-04-04T15:43:00.953Z,99520.77
2019-04-04T15:45:34.083Z,99521.16
2019-04-04T15:48:06.881Z,99530.52
2019-04-04T15:50:39.663Z,99523.39
2019-04-04T15:53:12.479Z,99530.63
2019-04-04T15:55:45.426Z,99539.78
2019-04-04T15:58:18.305Z,99537.10
2019-04-04T16:00:52.335Z,99533.64
2019-04-04T16:03:25.500Z,99535.75
2019-04-04T16:05:58.274Z,99532.72
2019-04-04T16:08:33.306Z,99538.08
2019-04-04T16:11:06.488Z,99537.16
2019-04-04T16:13:39.383Z,99537.27
2019-04-04T16:16:12.162Z,99540.35
2019-04-04T16:18:46.044Z,99539.88
2019-04-04T16:21:19.862Z,99546.75
2019-04-04T16:23:52.664Z,99546.67
2019-04-04T16:26:25.421Z,99548.16
2019-04-04T16:28:58.696Z,99549.81
2019-04-04T16:31:34.364Z,99549.59
2019-04-04T16:34:06.117Z,99555.95
2019-04-04T16:36:38.909Z,99555.25
2019-04-04T16:39:11.719Z,99551.39
2019-04-04T16:41:44.593Z,99566.72
2019-04-04T16:44:17.402Z,99564.70
2019-04-04T16:46:50.254Z,99564.41
2019-04-04T16:49:23.054Z,99563.70
2019-04-04T16:51:57.133Z,99566.30
2019-04-04T16:54:29.973Z,99570.61
2019-04-04T16:57:03.765Z,99563.13
2019-04-04T16:59:36.624Z,99560.70
2019-04-04T17:02:09.752Z,99565.41
2019-04-04T17:04:42.657Z,99572.63
2019-04-04T17:07:15.584Z,99580.40
2019-04-04T17:09:48.917Z,99573.86
2019-04-04T17:12:21.769Z,99577.63
2019-04-04T17:14:54.650Z,99577.00
2019-04-04T17:17:27.591Z,99585.61
2019-04-04T17:20:00.769Z,99584.23
2019-04-04T17:22:33.858Z,99584.93
2019-04-04T17:25:07.923Z,99588.23
2019-04-04T17:27:41.137Z,99593.45
2019-04-04T17:30:15.048Z,99596.87
2019-04-04T17:32:49.608Z,99595.87
2019-04-04T17:35:22.796Z,99597.02
2019-04-04T17:37:55.650Z,99603.17
2019-04-04T17:40:28.453Z,99604.94
2019-04-04T17:43:02.272Z,99603.14
2019-04-04T17:45:35.640Z,99603.52
2019-04-04T17:48:08.567Z,99607.84
2019-04-04T17:50:41.628Z,99608.19
2019-04-04T17:53:15.510Z,99616.39
2019-04-04T17:55:49.958Z,99618.58
2019-04-04T17:58:23.001Z,99617.72
2019-04-04T18:00:56.282Z,99624.23
2019-04-04T18:03:29.342Z,99632.08
2019-04-04T18:06:02.135Z,99635.48
2019-04-04T18:08:35.070Z,99632.62
2019-04-04T18:11:08.139Z,99638.09
2019-04-04T18:13:41.068Z,99641.88
2019-04-04T18:16:14.038Z,99650.03
2019-04-04T18:18:46.817Z,99642.64
2019-04-04T18:21:19.604Z,99651.61
2019-04-04T18:23:52.478Z,99654.98
2019-04-04T18:26:25.355Z,99654.77
2019-04-04T18:28:58.236Z,99663.00
2019-04-04T18:31:31.132Z,99669.89
2019-04-04T18:34:04.258Z,99676.38
2019-04-04T18:36:37.543Z,99677.44
2019-04-04T18:39:11.458Z,99675.34
2019-04-04T18:41:44.403Z,99682.37
2019-04-04T18:44:17.352Z,99682.52
2019-04-04T18:46:50.168Z,99685.38
2019-04-04T18:49:23.037Z,99680.83
2019-04-04T18:51:55.957Z,99682.30
2019-04-04T18:54:28.792Z,99685.09
2019-04-04T18:57:01.889Z,99685.58
2019-04-04T18:59:34.819Z,99688.27
2019-04-04T19:02:07.638Z,99696.28
2019-04-04T19:04:40.687Z,99696.58
2019-04-04T19:07:13.574Z,99702.15
2019-04-04T19:09:46.417Z,99702.98
2019-04-04T19:12:19.263Z,99709.01
2019-04-04T19:14:52.082Z,99707.22
2019-04-04T19:17:24.929Z,99703.44
2019-04-04T19:19:57.811Z,99708.95
2019-04-04T19:22:31.266Z,99710.89
2019-04-04T19:25:04.243Z,99711.04
2019-04-04T19:27:37.404Z,99717.45
2019-04-04T19:30:11.729Z,99716.77
2019-04-04T19:32:44.627Z,99714.34
2019-04-04T19:35:18.458Z,99715.41
2019-04-04T19:38:00.043Z,99718.84
2019-04-04T19:40:25.972Z,99716.14
2019-04-04T19:42:58.821Z,99721.73
2019-04-04T19:45:31.707Z,99720.59
2019-04-04T19:48:04.703Z,99723.07
2019-04-04T19:50:39.152Z,99730.04
2019-04-04T19:53:12.356Z,99726.58
2019-04-04T19:55:45.360Z,99725.85
2019-04-04T19:58:18.222Z,99725.39
2019-04-04T20:00:51.505Z,99724.23
2019-04-04T20:03:24.350Z,99729.38
2019-04-04T20:05:57.238Z,99723.55
2019-04-04T20:08:30.109Z,99734.98
2019-04-04T20:11:02.982Z,99741.16
2019-04-04T20:13:35.889Z,99738.64
2019-04-04T20:16:08.874Z,99739.61
2019-04-04T20:18:41.827Z,99740.55
2019-04-04T20:21:14.845Z,99753.48
2019-04-04T20:23:47.678Z,99748.66
2019-04-04T20:26:20.557Z,99746.22
2019-04-04T20:28:53.440Z,99748.57
2019-04-04T20:31:26.644Z,99747.38
2019-04-04T20:34:02.374Z,99745.24
2019-04-04T20:36:33.972Z,99754.96
2019-04-04T20:39:09.387Z,99755.34
2019-04-04T20:41:44.611Z,99758.03
2019-04-04T20:44:19.897Z,99758.48
2019-04-04T20:46:52.812Z,99760.71
2019-04-04T20:49:25.671Z,99763.33
2019-04-04T20:51:58.568Z,99766.42
2019-04-04T20:54:31.355Z,99769.59
2019-04-04T20:57:04.219Z,99773.63
2019-04-04T20:59:36.984Z,99785.53
2019-04-04T21:02:09.752Z,99785.51
2019-04-04T21:04:43.709Z,99787.41
2019-04-04T21:07:16.497Z,99789.18
2019-04-04T21:09:49.296Z,99782.14
2019-04-04T21:12:22.081Z,99788.73
2019-04-04T21:14:56.191Z,99793.48
2019-04-04T21:17:29.145Z,99793.91
2019-04-04T21:20:05.723Z,99791.67
2019-04-04T21:22:38.654Z,99790.29
2019-04-04T21:25:11.841Z,99793.48
2019-04-04T21:27:44.622Z,99798.48
2019-04-04T21:30:18.408Z,99796.73
2019-04-04T21:32:51.378Z,99807.27
2019-04-04T21:35:24.164Z,99809.79
2019-04-04T21:37:56.944Z,99806.17
2019-04-04T21:40:29.768Z,99809.16
2019-04-04T21:43:02.751Z,99808.22
2019-04-04T21:45:35.550Z,99810.36
2019-04-04T21:48:08.327Z,99814.33
2019-04-04T21:50:41.117Z,99821.01
2019-04-04T21:53:13.923Z,99818.45
2019-04-04T21:55:46.727Z,99821.38
2019-04-04T21:58:20.475Z,99821.73
2019-04-04T22:00:55.010Z,99824.47
2019-04-04T22:03:28.060Z,99824.47
2019-04-04T22:06:00.908Z,99822.31
2019-04-04T22:08:33.767Z,99827.21
2019-04-04T22:11:06.568Z,99822.81
2019-04-04T22:13:39.332Z,99825.52
2019-04-04T22:16:12.188Z,99824.38
2019-04-04T22:18:45.048Z,99816.88
2019-04-04T22:21:17.855Z,99811.28
2019-04-04T22:23:50.751Z,99818.37
2019-04-04T22:26:23.859Z,99823.70
2019-04-04T22:28:56.660Z,99828.66
2019-04-04T22:31:29.506Z,99823.79
2019-04-04T22:34:02.439Z,99825.53
2019-04-04T22:36:35.339Z,99821.98
2019-04-04T22:39:09.552Z,99822.75
2019-04-04T22:41:42.418Z,99820.46
2019-04-04T22:44:15.421Z,99815.59
2019-04-04T22:46:49.730Z,99817.31
2019-04-04T22:49:22.459Z,99825.25
2019-04-04T22:51:55.375Z,99825.30
2019-04-04T22:54:28.164Z,99837.78
2019-04-04T22:57:01.032Z,99832.44
2019-04-04T22:59:33.977Z,99823.64
2019-04-04T23:02:06.841Z,99836.94
2019-04-04T23:04:39.710Z,99832.63
2019-04-04T23:07:12.625Z,99840.23
2019-04-04T23:09:45.585Z,99839.78
2019-04-04T23:12:18.430Z,99837.59
2019-04-04T23:14:51.385Z,99831.73
2019-04-04T23:17:24.170Z,99835.16
2019-04-04T23:19:57.335Z,99831.56
2019-04-04T23:22:30.171Z,99835.39
2019-04-04T23:25:03.170Z,99830.55
2019-04-04T23:27:36.180Z,99824.77
2019-04-04T23:30:09.480Z,99826.84
2019-04-04T23:32:42.254Z,99826.03
2019-04-04T23:35:16.655Z,99823.89
2019-04-04T23:37:49.822Z,99821.58
2019-04-04T23:40:22.629Z,99822.36
2019-04-04T23:42:55.455Z,99821.91
2019-04-04T23:45:28.469Z,99814.42
2019-04-04T23:48:01.326Z,99822.96
2019-04-04T23:50:34.428Z,99821.55
2019-04-04T23:53:08.564Z,99821.91
2019-04-04T23:55:41.309Z,99821.10
